sensor_id;sensor_type;location;lat;lon;timestamp;pressure;altitude;pressure_sealevel;temperature;humidity
58072;BME280;60383;46.626;18.866;2022-12-05T00:01:19;101066.44;;;4.30;93.81
58072;BME280;60383;46.626;18.866;2022-12-05T00:03:47;101062.16;;;4.26;93.67
58072;BME280;60383;46.626;18.866;2022-12-05T00:06:15;101060.78;;;4.34;93.50
58072;BME280;60383;46.626;18.866;2022-12-05T00:08:40;101061.13;;;4.29;93.43
58072;BME280;60383;46.626;18.866;2022-12-05T00:11:14;101061.81;;;4.18;93.88
58072;BME280;60383;46.626;18.866;2022-12-05T00:13:40;101059.81;;;4.07;94.51
58072;BME280;60383;46.626;18.866;2022-12-05T00:16:08;101059.38;;;4.28;94.42
58072;BME280;60383;46.626;18.866;2022-12-05T00:18:34;101068.69;;;4.09;94.72
58072;BME280;60383;46.626;18.866;2022-12-05T00:20:59;101056.69;;;4.13;94.80
58072;BME280;60383;46.626;18.866;2022-12-05T00:23:25;101061.56;;;4.36;93.57
58072;BME280;60383;46.626;18.866;2022-12-05T00:25:50;101065.75;;;4.27;94.39
58072;BME280;60383;46.626;18.866;2022-12-05T00:28:15;101058.22;;;4.18;94.71
58072;BME280;60383;46.626;18.866;2022-12-05T00:30:41;101061.72;;;4.05;94.90
58072;BME280;60383;46.626;18.866;2022-12-05T00:33:06;101059.59;;;4.10;95.46
58072;BME280;60383;46.626;18.866;2022-12-05T00:35:32;101067.34;;;4.02;96.23
58072;BME280;60383;46.626;18.866;2022-12-05T00:37:58;101054.94;;;4.12;95.67
58072;BME280;60383;46.626;18.866;2022-12-05T00:40:23;101066.97;;;4.08;96.02
58072;BME280;60383;46.626;18.866;2022-12-05T00:42:48;101064.63;;;4.02;95.93
58072;BME280;60383;46.626;18.866;2022-12-05T00:45:14;101057.75;;;4.11;96.38
58072;BME280;60383;46.626;18.866;2022-12-05T00:47:39;101060.06;;;4.17;95.58
58072;BME280;60383;46.626;18.866;2022-12-05T00:50:05;101046.97;;;4.24;95.24
58072;BME280;60383;46.626;18.866;2022-12-05T00:52:31;101058.47;;;4.00;96.49
58072;BME280;60383;46.626;18.866;2022-12-05T00:54:56;101057.81;;;3.82;98.21
58072;BME280;60383;46.626;18.866;2022-12-05T00:57:22;101063.09;;;3.98;97.28
58072;BME280;60383;46.626;18.866;2022-12-05T00:59:47;101063.78;;;3.87;97.56
58072;BME280;60383;46.626;18.866;2022-12-05T01:02:13;101062.25;;;3.83;97.75
58072;BME280;60383;46.626;18.866;2022-12-05T01:04:38;101060.69;;;3.79;98.74
58072;BME280;60383;46.626;18.866;2022-12-05T01:07:03;101061.06;;;3.87;98.64
58072;BME280;60383;46.626;18.866;2022-12-05T01:09:29;101058.25;;;3.89;98.08
58072;BME280;60383;46.626;18.866;2022-12-05T01:11:54;101055.34;;;4.06;97.84
58072;BME280;60383;46.626;18.866;2022-12-05T01:14:22;101049.38;;;4.01;97.35
58072;BME280;60383;46.626;18.866;2022-12-05T01:16:49;101055.47;;;4.05;97.45
58072;BME280;60383;46.626;18.866;2022-12-05T01:19:21;101062.78;;;4.17;96.50
58072;BME280;60383;46.626;18.866;2022-12-05T01:21:47;101054.56;;;4.04;96.53
58072;BME280;60383;46.626;18.866;2022-12-05T01:24:13;101062.41;;;4.09;97.01
58072;BME280;60383;46.626;18.866;2022-12-05T01:26:40;101060.56;;;3.95;97.88
58072;BME280;60383;46.626;18.866;2022-12-05T01:29:06;101059.41;;;3.99;97.63
58072;BME280;60383;46.626;18.866;2022-12-05T01:31:36;101048.75;;;4.10;97.36
58072;BME280;60383;46.626;18.866;2022-12-05T01:34:04;101054.88;;;3.85;98.72
58072;BME280;60383;46.626;18.866;2022-12-05T01:36:30;101058.25;;;3.89;98.86
58072;BME280;60383;46.626;18.866;2022-12-05T01:38:56;101048.59;;;3.84;99.32
58072;BME280;60383;46.626;18.866;2022-12-05T01:41:25;101050.91;;;3.91;98.88
58072;BME280;60383;46.626;18.866;2022-12-05T01:46:48;101050.63;;;3.81;99.60
58072;BME280;60383;46.626;18.866;2022-12-05T01:49:32;101043.06;;;3.86;99.58
58072;BME280;60383;46.626;18.866;2022-12-05T01:52:06;101043.28;;;3.97;99.11
58072;BME280;60383;46.626;18.866;2022-12-05T01:54:36;101037.03;;;4.10;98.55
58072;BME280;60383;46.626;18.866;2022-12-05T01:57:04;101042.72;;;4.20;98.16
58072;BME280;60383;46.626;18.866;2022-12-05T01:59:33;101047.66;;;4.13;97.94
58072;BME280;60383;46.626;18.866;2022-12-05T02:02:00;101041.59;;;4.37;96.73
58072;BME280;60383;46.626;18.866;2022-12-05T02:04:26;101043.69;;;4.19;97.42
58072;BME280;60383;46.626;18.866;2022-12-05T02:06:53;101038.78;;;4.11;97.52
58072;BME280;60383;46.626;18.866;2022-12-05T02:09:18;101046.81;;;4.12;98.35
58072;BME280;60383;46.626;18.866;2022-12-05T02:11:57;101043.44;;;4.36;96.71
58072;BME280;60383;46.626;18.866;2022-12-05T02:30:55;101050.75;;;4.21;97.48
58072;BME280;60383;46.626;18.866;2022-12-05T02:33:34;101054.03;;;4.26;97.98
58072;BME280;60383;46.626;18.866;2022-12-05T02:38:52;101048.00;;;4.36;97.00
58072;BME280;60383;46.626;18.866;2022-12-05T02:41:24;101051.56;;;4.36;97.29
58072;BME280;60383;46.626;18.866;2022-12-05T02:44:05;101052.22;;;4.40;96.97
58072;BME280;60383;46.626;18.866;2022-12-05T02:46:35;101065.94;;;4.24;97.48
58072;BME280;60383;46.626;18.866;2022-12-05T02:49:06;101068.91;;;4.06;98.63
58072;BME280;60383;46.626;18.866;2022-12-05T02:51:34;101063.84;;;4.14;98.20
58072;BME280;60383;46.626;18.866;2022-12-05T02:54:07;101066.88;;;4.37;96.69
58072;BME280;60383;46.626;18.866;2022-12-05T02:56:35;101064.13;;;4.24;97.02
58072;BME280;60383;46.626;18.866;2022-12-05T02:59:02;101068.63;;;4.38;97.19
58072;BME280;60383;46.626;18.866;2022-12-05T03:01:29;101058.09;;;4.19;97.01
58072;BME280;60383;46.626;18.866;2022-12-05T03:03:56;101061.13;;;4.29;97.94
58072;BME280;60383;46.626;18.866;2022-12-05T03:06:29;101060.13;;;4.30;96.98
58072;BME280;60383;46.626;18.866;2022-12-05T03:11:27;101059.78;;;4.22;97.15
58072;BME280;60383;46.626;18.866;2022-12-05T03:13:57;101057.63;;;4.27;96.87
58072;BME280;60383;46.626;18.866;2022-12-05T03:16:46;101063.03;;;4.27;96.30
58072;BME280;60383;46.626;18.866;2022-12-05T03:19:45;101058.31;;;4.16;97.45
58072;BME280;60383;46.626;18.866;2022-12-05T03:22:25;101060.03;;;4.31;96.64
58072;BME280;60383;46.626;18.866;2022-12-05T03:24:52;101060.75;;;4.21;97.05
58072;BME280;60383;46.626;18.866;2022-12-05T03:27:25;101051.22;;;4.28;97.21
58072;BME280;60383;46.626;18.866;2022-12-05T03:30:05;101049.63;;;4.11;97.33
58072;BME280;60383;46.626;18.866;2022-12-05T03:35:21;101043.22;;;4.12;98.12
58072;BME280;60383;46.626;18.866;2022-12-05T03:37:57;101038.97;;;4.08;98.01
58072;BME280;60383;46.626;18.866;2022-12-05T03:43:26;101044.97;;;3.98;98.99
58072;BME280;60383;46.626;18.866;2022-12-05T03:48:49;101045.47;;;4.05;98.58
58072;BME280;60383;46.626;18.866;2022-12-05T03:51:19;101049.72;;;4.09;98.04
58072;BME280;60383;46.626;18.866;2022-12-05T03:53:51;101056.50;;;4.02;98.45
58072;BME280;60383;46.626;18.866;2022-12-05T03:56:22;101051.44;;;4.10;97.87
58072;BME280;60383;46.626;18.866;2022-12-05T04:01:21;101056.56;;;4.15;97.27
58072;BME280;60383;46.626;18.866;2022-12-05T04:03:53;101062.84;;;4.15;97.71
58072;BME280;60383;46.626;18.866;2022-12-05T04:06:25;101056.38;;;4.18;97.95
58072;BME280;60383;46.626;18.866;2022-12-05T04:08:57;101054.91;;;4.27;97.38
58072;BME280;60383;46.626;18.866;2022-12-05T04:11:25;101056.72;;;4.26;97.29
58072;BME280;60383;46.626;18.866;2022-12-05T04:13:54;101050.81;;;4.34;96.92
58072;BME280;60383;46.626;18.866;2022-12-05T04:16:39;101044.72;;;4.30;96.74
58072;BME280;60383;46.626;18.866;2022-12-05T04:19:46;101054.66;;;4.17;97.20
58072;BME280;60383;46.626;18.866;2022-12-05T04:22:30;101059.09;;;4.18;97.40
58072;BME280;60383;46.626;18.866;2022-12-05T04:24:58;101070.69;;;4.20;97.23
58072;BME280;60383;46.626;18.866;2022-12-05T04:27:47;101066.91;;;4.23;97.58
58072;BME280;60383;46.626;18.866;2022-12-05T04:30:21;101053.56;;;4.20;97.88
58072;BME280;60383;46.626;18.866;2022-12-05T04:33:01;101056.44;;;4.31;97.10
58072;BME280;60383;46.626;18.866;2022-12-05T04:35:33;101045.66;;;4.02;97.85
58072;BME280;60383;46.626;18.866;2022-12-05T04:38:10;101050.88;;;4.05;98.23
58072;BME280;60383;46.626;18.866;2022-12-05T04:40:43;101055.63;;;4.02;98.19
58072;BME280;60383;46.626;18.866;2022-12-05T04:43:13;101046.44;;;4.04;98.29
58072;BME280;60383;46.626;18.866;2022-12-05T04:45:41;101055.47;;;3.90;98.91
58072;BME280;60383;46.626;18.866;2022-12-05T04:48:11;101053.78;;;4.02;98.89
58072;BME280;60383;46.626;18.866;2022-12-05T04:50:38;101051.81;;;3.91;99.51
58072;BME280;60383;46.626;18.866;2022-12-05T04:53:08;101042.16;;;4.14;98.17
58072;BME280;60383;46.626;18.866;2022-12-05T04:55:36;101040.06;;;3.91;99.03
58072;BME280;60383;46.626;18.866;2022-12-05T04:58:23;101044.78;;;4.02;98.43
58072;BME280;60383;46.626;18.866;2022-12-05T05:03:53;101058.06;;;4.06;98.11
58072;BME280;60383;46.626;18.866;2022-12-05T05:06:19;101052.44;;;3.95;98.54
58072;BME280;60383;46.626;18.866;2022-12-05T05:08:50;101054.47;;;4.06;98.44
58072;BME280;60383;46.626;18.866;2022-12-05T05:11:19;101056.72;;;3.99;98.92
58072;BME280;60383;46.626;18.866;2022-12-05T05:13:45;101060.28;;;3.99;99.04
58072;BME280;60383;46.626;18.866;2022-12-05T05:16:15;101062.13;;;3.99;99.20
58072;BME280;60383;46.626;18.866;2022-12-05T05:18:46;101062.53;;;3.93;99.54
58072;BME280;60383;46.626;18.866;2022-12-05T05:21:20;101072.47;;;3.92;99.21
58072;BME280;60383;46.626;18.866;2022-12-05T05:23:47;101075.47;;;4.02;98.94
58072;BME280;60383;46.626;18.866;2022-12-05T05:26:13;101070.16;;;3.86;99.39
58072;BME280;60383;46.626;18.866;2022-12-05T05:28:38;101071.91;;;3.87;99.74
58072;BME280;60383;46.626;18.866;2022-12-05T05:31:04;101055.19;;;3.80;100.00
58072;BME280;60383;46.626;18.866;2022-12-05T05:33:31;101053.63;;;3.76;100.00
58072;BME280;60383;46.626;18.866;2022-12-05T05:35:56;101058.09;;;3.77;100.00
58072;BME280;60383;46.626;18.866;2022-12-05T05:38:22;101052.78;;;3.76;100.00
58072;BME280;60383;46.626;18.866;2022-12-05T05:40:47;101055.75;;;4.00;99.39
58072;BME280;60383;46.626;18.866;2022-12-05T05:43:13;101054.19;;;3.81;100.00
58072;BME280;60383;46.626;18.866;2022-12-05T05:45:38;101061.66;;;3.78;100.00
58072;BME280;60383;46.626;18.866;2022-12-05T05:48:04;101058.66;;;3.68;100.00
58072;BME280;60383;46.626;18.866;2022-12-05T05:50:30;101050.53;;;3.82;100.00
58072;BME280;60383;46.626;18.866;2022-12-05T05:52:55;101045.88;;;3.84;100.00
58072;BME280;60383;46.626;18.866;2022-12-05T05:55:21;101049.66;;;3.96;100.00
58072;BME280;60383;46.626;18.866;2022-12-05T05:57:46;101052.00;;;3.74;100.00
58072;BME280;60383;46.626;18.866;2022-12-05T06:00:12;101048.00;;;3.94;100.00
58072;BME280;60383;46.626;18.866;2022-12-05T06:02:38;101064.16;;;3.95;99.97
58072;BME280;60383;46.626;18.866;2022-12-05T06:05:04;101054.66;;;4.03;99.84
58072;BME280;60383;46.626;18.866;2022-12-05T06:07:29;101053.22;;;3.97;99.81
58072;BME280;60383;46.626;18.866;2022-12-05T06:09:55;101043.94;;;4.01;99.64
58072;BME280;60383;46.626;18.866;2022-12-05T06:12:20;101036.97;;;3.97;99.79
58072;BME280;60383;46.626;18.866;2022-12-05T06:14:47;101038.81;;;3.96;99.89
58072;BME280;60383;46.626;18.866;2022-12-05T06:17:13;101048.84;;;4.09;99.59
58072;BME280;60383;46.626;18.866;2022-12-05T06:19:38;101049.28;;;3.88;100.00
58072;BME280;60383;46.626;18.866;2022-12-05T06:22:04;101047.69;;;3.98;100.00
58072;BME280;60383;46.626;18.866;2022-12-05T06:24:29;101043.00;;;3.88;99.94
58072;BME280;60383;46.626;18.866;2022-12-05T06:26:55;101043.56;;;3.93;100.00
58072;BME280;60383;46.626;18.866;2022-12-05T06:29:20;101052.38;;;3.96;99.52
58072;BME280;60383;46.626;18.866;2022-12-05T06:31:45;101054.56;;;4.04;100.00
58072;BME280;60383;46.626;18.866;2022-12-05T06:34:11;101046.31;;;4.06;98.77
58072;BME280;60383;46.626;18.866;2022-12-05T06:36:36;101048.75;;;4.10;99.42
58072;BME280;60383;46.626;18.866;2022-12-05T06:39:02;101056.00;;;4.10;99.33
58072;BME280;60383;46.626;18.866;2022-12-05T06:41:28;101064.16;;;4.10;99.90
58072;BME280;60383;46.626;18.866;2022-12-05T06:43:54;101067.91;;;4.22;98.81
58072;BME280;60383;46.626;18.866;2022-12-05T06:46:21;101066.34;;;4.18;98.54
58072;BME280;60383;46.626;18.866;2022-12-05T06:48:47;101071.03;;;4.01;99.59
58072;BME280;60383;46.626;18.866;2022-12-05T06:51:14;101076.25;;;4.04;99.46
58072;BME280;60383;46.626;18.866;2022-12-05T06:53:40;101086.31;;;4.02;99.51
58072;BME280;60383;46.626;18.866;2022-12-05T06:56:09;101093.81;;;3.84;100.00
58072;BME280;60383;46.626;18.866;2022-12-05T06:58:39;101105.59;;;3.97;100.00
58072;BME280;60383;46.626;18.866;2022-12-05T07:01:04;101105.91;;;3.93;100.00
58072;BME280;60383;46.626;18.866;2022-12-05T07:03:48;101107.81;;;4.20;100.00
58072;BME280;60383;46.626;18.866;2022-12-05T07:06:14;101113.06;;;4.08;99.80
58072;BME280;60383;46.626;18.866;2022-12-05T07:08:40;101103.31;;;4.33;98.68
58072;BME280;60383;46.626;18.866;2022-12-05T07:11:06;101106.78;;;4.50;97.38
58072;BME280;60383;46.626;18.866;2022-12-05T07:13:31;101100.75;;;4.44;97.57
58072;BME280;60383;46.626;18.866;2022-12-05T07:15:57;101112.78;;;4.40;97.57
58072;BME280;60383;46.626;18.866;2022-12-05T07:18:25;101102.75;;;4.55;97.97
58072;BME280;60383;46.626;18.866;2022-12-05T07:20:58;101105.47;;;4.55;96.81
58072;BME280;60383;46.626;18.866;2022-12-05T07:23:24;101109.16;;;4.27;97.80
58072;BME280;60383;46.626;18.866;2022-12-05T07:25:50;101110.44;;;4.48;97.79
58072;BME280;60383;46.626;18.866;2022-12-05T07:28:15;101114.81;;;4.51;97.29
58072;BME280;60383;46.626;18.866;2022-12-05T07:30:40;101104.41;;;4.58;97.35
58072;BME280;60383;46.626;18.866;2022-12-05T07:33:06;101111.44;;;4.60;97.40
58072;BME280;60383;46.626;18.866;2022-12-05T07:35:31;101107.69;;;4.63;96.46
58072;BME280;60383;46.626;18.866;2022-12-05T07:37:57;101105.00;;;4.76;96.26
58072;BME280;60383;46.626;18.866;2022-12-05T07:40:23;101103.19;;;4.89;95.75
58072;BME280;60383;46.626;18.866;2022-12-05T07:42:49;101102.25;;;4.90;95.64
58072;BME280;60383;46.626;18.866;2022-12-05T07:45:14;101105.06;;;5.02;94.82
58072;BME280;60383;46.626;18.866;2022-12-05T07:47:40;101107.09;;;5.25;93.44
58072;BME280;60383;46.626;18.866;2022-12-05T07:50:06;101094.47;;;5.24;93.49
58072;BME280;60383;46.626;18.866;2022-12-05T07:52:31;101093.31;;;5.67;90.28
58072;BME280;60383;46.626;18.866;2022-12-05T07:54:56;101090.47;;;5.82;88.94
58072;BME280;60383;46.626;18.866;2022-12-05T07:57:22;101089.34;;;7.31;82.97
58072;BME280;60383;46.626;18.866;2022-12-05T07:59:48;101087.41;;;8.24;76.93
58072;BME280;60383;46.626;18.866;2022-12-05T08:02:13;101084.19;;;8.08;74.22
58072;BME280;60383;46.626;18.866;2022-12-05T08:04:39;101072.69;;;10.38;69.04
58072;BME280;60383;46.626;18.866;2022-12-05T08:07:04;101081.38;;;11.32;64.40
58072;BME280;60383;46.626;18.866;2022-12-05T08:09:29;101080.75;;;11.95;60.52
58072;BME280;60383;46.626;18.866;2022-12-05T08:11:55;101089.06;;;11.76;59.64
58072;BME280;60383;46.626;18.866;2022-12-05T08:14:20;101100.94;;;9.56;65.21
58072;BME280;60383;46.626;18.866;2022-12-05T08:16:47;101105.25;;;7.49;72.98
58072;BME280;60383;46.626;18.866;2022-12-05T08:19:13;101122.25;;;7.17;76.78
58072;BME280;60383;46.626;18.866;2022-12-05T08:21:39;101119.44;;;7.30;77.93
58072;BME280;60383;46.626;18.866;2022-12-05T08:24:05;101116.13;;;6.78;78.87
58072;BME280;60383;46.626;18.866;2022-12-05T08:26:44;101125.31;;;7.48;77.27
58072;BME280;60383;46.626;18.866;2022-12-05T08:29:14;101130.78;;;7.12;79.27
58072;BME280;60383;46.626;18.866;2022-12-05T08:31:42;101131.59;;;7.37;78.49
58072;BME280;60383;46.626;18.866;2022-12-05T08:34:10;101139.00;;;6.99;78.51
58072;BME280;60383;46.626;18.866;2022-12-05T08:36:36;101143.47;;;7.00;79.27
58072;BME280;60383;46.626;18.866;2022-12-05T08:39:04;101143.69;;;6.97;78.92
58072;BME280;60383;46.626;18.866;2022-12-05T08:41:30;101146.25;;;6.63;81.66
58072;BME280;60383;46.626;18.866;2022-12-05T08:44:06;101155.78;;;6.82;79.82
58072;BME280;60383;46.626;18.866;2022-12-05T08:46:35;101147.91;;;7.26;78.15
58072;BME280;60383;46.626;18.866;2022-12-05T08:49:05;101150.88;;;6.74;80.51
58072;BME280;60383;46.626;18.866;2022-12-05T08:51:42;101157.94;;;6.77;80.38
58072;BME280;60383;46.626;18.866;2022-12-05T08:54:08;101149.09;;;6.86;80.75
58072;BME280;60383;46.626;18.866;2022-12-05T08:56:34;101154.78;;;6.83;79.62
58072;BME280;60383;46.626;18.866;2022-12-05T08:59:00;101154.03;;;6.81;80.19
58072;BME280;60383;46.626;18.866;2022-12-05T09:01:28;101153.97;;;6.32;82.53
58072;BME280;60383;46.626;18.866;2022-12-05T09:03:57;101158.16;;;5.99;84.35
58072;BME280;60383;46.626;18.866;2022-12-05T09:06:27;101156.03;;;6.16;84.47
58072;BME280;60383;46.626;18.866;2022-12-05T09:08:55;101144.91;;;6.32;84.90
58072;BME280;60383;46.626;18.866;2022-12-05T09:11:24;101141.66;;;6.27;84.54
58072;BME280;60383;46.626;18.866;2022-12-05T09:13:51;101135.63;;;6.47;83.85
58072;BME280;60383;46.626;18.866;2022-12-05T09:16:20;101130.06;;;6.49;84.09
58072;BME280;60383;46.626;18.866;2022-12-05T09:18:47;101126.66;;;6.58;83.43
58072;BME280;60383;46.626;18.866;2022-12-05T09:21:19;101116.72;;;6.70;82.70
58072;BME280;60383;46.626;18.866;2022-12-05T09:23:45;101107.97;;;6.78;82.79
58072;BME280;60383;46.626;18.866;2022-12-05T09:26:14;101111.03;;;6.73;83.06
58072;BME280;60383;46.626;18.866;2022-12-05T09:28:41;101105.88;;;6.81;82.13
58072;BME280;60383;46.626;18.866;2022-12-05T09:31:09;101106.41;;;6.62;82.55
58072;BME280;60383;46.626;18.866;2022-12-05T09:33:36;101101.72;;;6.64;82.36
58072;BME280;60383;46.626;18.866;2022-12-05T09:36:08;101095.91;;;6.69;82.98
58072;BME280;60383;46.626;18.866;2022-12-05T09:38:35;101105.00;;;6.32;83.74
58072;BME280;60383;46.626;18.866;2022-12-05T09:41:16;101113.81;;;6.23;83.19
58072;BME280;60383;46.626;18.866;2022-12-05T09:43:54;101119.66;;;6.91;82.19
58072;BME280;60383;46.626;18.866;2022-12-05T09:46:49;101104.84;;;7.42;80.34
58072;BME280;60383;46.626;18.866;2022-12-05T09:49:16;101082.53;;;8.39;75.58
58072;BME280;60383;46.626;18.866;2022-12-05T09:51:44;101087.75;;;8.42;73.17
58072;BME280;60383;46.626;18.866;2022-12-05T09:54:12;101089.97;;;7.35;77.23
58072;BME280;60383;46.626;18.866;2022-12-05T09:56:38;101090.81;;;7.82;76.26
58072;BME280;60383;46.626;18.866;2022-12-05T09:59:12;101098.97;;;7.94;76.73
58072;BME280;60383;46.626;18.866;2022-12-05T10:02:09;101094.63;;;8.03;76.17
58072;BME280;60383;46.626;18.866;2022-12-05T10:04:57;101091.59;;;7.02;79.59
58072;BME280;60383;46.626;18.866;2022-12-05T10:15:49;101095.97;;;6.80;82.07
58072;BME280;60383;46.626;18.866;2022-12-05T10:20:47;101089.28;;;7.09;81.50
58072;BME280;60383;46.626;18.866;2022-12-05T10:23:23;101092.38;;;7.04;82.67
58072;BME280;60383;46.626;18.866;2022-12-05T10:25:56;101084.75;;;6.61;83.42
58072;BME280;60383;46.626;18.866;2022-12-05T10:31:29;101080.00;;;6.76;83.58
58072;BME280;60383;46.626;18.866;2022-12-05T10:34:08;101082.47;;;6.79;84.74
58072;BME280;60383;46.626;18.866;2022-12-05T10:36:36;101070.75;;;6.90;84.10
58072;BME280;60383;46.626;18.866;2022-12-05T10:39:01;101071.00;;;6.86;84.58
58072;BME280;60383;46.626;18.866;2022-12-05T10:41:27;101063.03;;;6.72;84.75
58072;BME280;60383;46.626;18.866;2022-12-05T10:43:53;101061.75;;;6.65;84.66
58072;BME280;60383;46.626;18.866;2022-12-05T10:46:20;101055.72;;;6.72;84.26
58072;BME280;60383;46.626;18.866;2022-12-05T10:48:45;101054.09;;;7.06;84.08
58072;BME280;60383;46.626;18.866;2022-12-05T10:51:17;101048.69;;;6.81;84.74
58072;BME280;60383;46.626;18.866;2022-12-05T10:53:50;101036.44;;;6.76;85.31
58072;BME280;60383;46.626;18.866;2022-12-05T10:59:00;101046.69;;;6.72;84.86
58072;BME280;60383;46.626;18.866;2022-12-05T11:01:25;101045.06;;;6.69;84.61
58072;BME280;60383;46.626;18.866;2022-12-05T11:06:58;101059.03;;;7.00;82.99
58072;BME280;60383;46.626;18.866;2022-12-05T11:09:27;101047.31;;;7.00;83.85
58072;BME280;60383;46.626;18.866;2022-12-05T11:12:02;101048.13;;;6.89;84.04
58072;BME280;60383;46.626;18.866;2022-12-05T11:14:29;101042.00;;;7.10;83.35
58072;BME280;60383;46.626;18.866;2022-12-05T11:16:58;101037.28;;;7.12;83.10
58072;BME280;60383;46.626;18.866;2022-12-05T11:19:27;101039.75;;;7.03;83.53
58072;BME280;60383;46.626;18.866;2022-12-05T11:21:54;101044.25;;;7.16;83.65
58072;BME280;60383;46.626;18.866;2022-12-05T11:24:32;101038.81;;;7.39;82.96
58072;BME280;60383;46.626;18.866;2022-12-05T11:27:00;101034.13;;;7.52;82.27
58072;BME280;60383;46.626;18.866;2022-12-05T11:30:04;101029.81;;;7.72;81.53
58072;BME280;60383;46.626;18.866;2022-12-05T11:32:39;101028.19;;;7.58;80.57
58072;BME280;60383;46.626;18.866;2022-12-05T11:35:24;101018.53;;;7.43;81.64
58072;BME280;60383;46.626;18.866;2022-12-05T11:40:29;101017.16;;;7.71;81.65
58072;BME280;60383;46.626;18.866;2022-12-05T11:51:10;101002.28;;;7.64;81.34
58072;BME280;60383;46.626;18.866;2022-12-05T11:56:37;100988.66;;;7.30;84.07
58072;BME280;60383;46.626;18.866;2022-12-05T12:02:23;100985.81;;;7.43;83.17
58072;BME280;60383;46.626;18.866;2022-12-05T12:05:37;100981.47;;;7.51;83.17
58072;BME280;60383;46.626;18.866;2022-12-05T12:11:15;100979.81;;;7.94;81.71
58072;BME280;60383;46.626;18.866;2022-12-05T12:16:49;100967.81;;;7.63;82.71
58072;BME280;60383;46.626;18.866;2022-12-05T12:30:44;100959.41;;;7.66;82.61
58072;BME280;60383;46.626;18.866;2022-12-05T12:36:02;100939.72;;;7.62;82.92
58072;BME280;60383;46.626;18.866;2022-12-05T12:47:02;100936.59;;;7.78;82.18
58072;BME280;60383;46.626;18.866;2022-12-05T12:52:15;100930.09;;;8.02;81.53
58072;BME280;60383;46.626;18.866;2022-12-05T12:55:07;100919.13;;;8.13;81.33
58072;BME280;60383;46.626;18.866;2022-12-05T13:03:00;100915.97;;;8.29;80.17
58072;BME280;60383;46.626;18.866;2022-12-05T13:05:36;100912.25;;;8.30;80.13
58072;BME280;60383;46.626;18.866;2022-12-05T13:08:13;100909.75;;;8.27;80.28
58072;BME280;60383;46.626;18.866;2022-12-05T13:10:43;100910.81;;;8.15;80.98
58072;BME280;60383;46.626;18.866;2022-12-05T13:13:16;100921.03;;;8.02;82.58
58072;BME280;60383;46.626;18.866;2022-12-05T13:15:46;100925.97;;;8.08;82.88
58072;BME280;60383;46.626;18.866;2022-12-05T13:18:20;100942.38;;;7.96;83.47
58072;BME280;60383;46.626;18.866;2022-12-05T13:20:56;100944.88;;;7.99;83.40
58072;BME280;60383;46.626;18.866;2022-12-05T13:23:30;100942.13;;;7.99;83.37
58072;BME280;60383;46.626;18.866;2022-12-05T13:25:58;100942.88;;;7.90;83.75
58072;BME280;60383;46.626;18.866;2022-12-05T13:28:39;100934.66;;;8.02;83.93
58072;BME280;60383;46.626;18.866;2022-12-05T13:31:10;100937.56;;;7.89;84.56
58072;BME280;60383;46.626;18.866;2022-12-05T13:33:48;100936.41;;;8.03;84.38
58072;BME280;60383;46.626;18.866;2022-12-05T13:36:20;100945.94;;;8.08;85.01
58072;BME280;60383;46.626;18.866;2022-12-05T13:41:56;100961.94;;;8.02;84.51
58072;BME280;60383;46.626;18.866;2022-12-05T13:44:48;100956.94;;;7.74;85.17
58072;BME280;60383;46.626;18.866;2022-12-05T13:50:07;100958.63;;;7.87;85.38
58072;BME280;60383;46.626;18.866;2022-12-05T13:52:50;100962.59;;;7.94;85.06
58072;BME280;60383;46.626;18.866;2022-12-05T13:55:36;100956.91;;;7.86;85.19
58072;BME280;60383;46.626;18.866;2022-12-05T14:00:42;100951.84;;;7.70;86.76
58072;BME280;60383;46.626;18.866;2022-12-05T14:06:03;100945.66;;;7.79;86.98
58072;BME280;60383;46.626;18.866;2022-12-05T14:15:47;100927.19;;;7.82;86.56
58072;BME280;60383;46.626;18.866;2022-12-05T14:32:27;100933.41;;;7.62;87.64
58072;BME280;60383;46.626;18.866;2022-12-05T14:37:34;100945.41;;;7.59;88.59
58072;BME280;60383;46.626;18.866;2022-12-05T14:42:54;100944.53;;;7.59;88.90
58072;BME280;60383;46.626;18.866;2022-12-05T14:47:58;100942.81;;;7.58;88.98
58072;BME280;60383;46.626;18.866;2022-12-05T14:55:39;100943.69;;;7.58;89.03
58072;BME280;60383;46.626;18.866;2022-12-05T14:58:10;100932.03;;;7.45;89.36
58072;BME280;60383;46.626;18.866;2022-12-05T15:00:41;100928.59;;;7.43;89.75
58072;BME280;60383;46.626;18.866;2022-12-05T15:03:19;100922.59;;;7.60;89.14
58072;BME280;60383;46.626;18.866;2022-12-05T15:05:46;100923.63;;;7.48;89.49
58072;BME280;60383;46.626;18.866;2022-12-05T15:08:13;100918.53;;;7.43;90.18
58072;BME280;60383;46.626;18.866;2022-12-05T15:10:41;100913.09;;;7.55;89.83
58072;BME280;60383;46.626;18.866;2022-12-05T15:13:16;100906.16;;;7.50;89.88
58072;BME280;60383;46.626;18.866;2022-12-05T15:15:43;100897.97;;;7.50;90.61
58072;BME280;60383;46.626;18.866;2022-12-05T15:21:43;100903.06;;;7.44;91.01
58072;BME280;60383;46.626;18.866;2022-12-05T15:23:56;100902.56;;;7.50;90.88
58072;BME280;60383;46.626;18.866;2022-12-05T15:26:46;100899.97;;;7.26;91.69
58072;BME280;60383;46.626;18.866;2022-12-05T15:40:21;100915.56;;;7.24;91.87
58072;BME280;60383;46.626;18.866;2022-12-05T15:42:52;100903.81;;;7.23;91.88
58072;BME280;60383;46.626;18.866;2022-12-05T15:45:26;100912.47;;;7.06;93.03
58072;BME280;60383;46.626;18.866;2022-12-05T15:47:54;100898.50;;;7.10;92.55
58072;BME280;60383;46.626;18.866;2022-12-05T15:50:25;100897.25;;;7.03;93.47
58072;BME280;60383;46.626;18.866;2022-12-05T15:55:48;100899.59;;;7.08;93.22
58072;BME280;60383;46.626;18.866;2022-12-05T15:58:28;100897.59;;;6.87;94.38
58072;BME280;60383;46.626;18.866;2022-12-05T16:01:00;100905.91;;;6.97;94.27